createdAt,value
2019-06-27T00:01:35.825Z,11.90
2019-06-27T00:04:02.833Z,13.53
2019-06-27T00:06:29.837Z,12.23
2019-06-27T00:08:56.984Z,12.13
2019-06-27T00:11:23.873Z,13.73
2019-06-27T00:13:50.810Z,13.00
2019-06-27T00:16:17.835Z,13.17
2019-06-27T00:18:44.871Z,11.83
2019-06-27T00:21:11.821Z,11.63
2019-06-27T00:23:39.827Z,12.40
2019-06-27T00:26:06.899Z,11.87
2019-06-27T00:28:33.979Z,11.50
2019-06-27T00:31:01.069Z,11.30
2019-06-27T00:33:28.249Z,12.70
2019-06-27T00:35:55.224Z,11.43
2019-06-27T00:38:22.313Z,11.70
2019-06-27T00:40:49.394Z,12.20
2019-06-27T00:43:16.373Z,12.03
2019-06-27T00:45:43.455Z,12.20
2019-06-27T00:48:10.462Z,12.10
2019-06-27T00:50:37.542Z,11.97
2019-06-27T00:53:04.466Z,11.47
2019-06-27T00:55:31.528Z,10.70
2019-06-27T00:57:58.465Z,10.77
2019-06-27T01:00:27.550Z,12.70
2019-06-27T01:02:54.898Z,13.17
2019-06-27T01:05:21.904Z,11.47
2019-06-27T01:07:49.008Z,11.40
2019-06-27T01:10:16.543Z,11.63
2019-06-27T01:12:43.669Z,13.80
2019-06-27T01:15:11.870Z,12.47
2019-06-27T01:17:38.833Z,11.70
2019-06-27T01:20:25.272Z,12.93
2019-06-27T01:22:52.381Z,10.20
2019-06-27T01:25:19.517Z,11.27
2019-06-27T01:27:46.690Z,11.13
2019-06-27T01:30:13.933Z,11.07
2019-06-27T01:32:40.998Z,10.70
2019-06-27T01:35:08.600Z,12.20
2019-06-27T01:37:35.652Z,13.33
2019-06-27T01:40:03.619Z,11.90
2019-06-27T01:42:31.587Z,11.03
2019-06-27T01:45:00.423Z,11.33
2019-06-27T01:47:27.502Z,10.70
2019-06-27T01:49:54.453Z,11.03
2019-06-27T01:52:22.510Z,10.00
2019-06-27T01:54:49.461Z,11.20
2019-06-27T01:57:18.537Z,11.70
2019-06-27T01:59:45.495Z,10.60
2019-06-27T02:02:12.508Z,10.80
2019-06-27T02:04:39.580Z,9.80
2019-06-27T02:07:06.709Z,10.30
2019-06-27T02:09:33.725Z,10.30
2019-06-27T02:12:01.866Z,10.37
2019-06-27T02:14:29.032Z,11.40
2019-06-27T02:16:56.471Z,10.40
2019-06-27T02:19:23.929Z,9.73
2019-06-27T02:21:50.962Z,9.87
2019-06-27T02:24:18.073Z,10.80
2019-06-27T02:26:45.218Z,11.60
2019-06-27T02:29:12.276Z,9.60
2019-06-27T02:31:39.337Z,9.50
2019-06-27T02:34:07.324Z,9.30
2019-06-27T02:36:34.537Z,10.10
2019-06-27T02:39:01.710Z,10.23
2019-06-27T02:41:28.735Z,9.43
2019-06-27T02:43:55.792Z,9.20
2019-06-27T02:46:22.914Z,9.67
2019-06-27T02:48:50.203Z,10.43
2019-06-27T02:51:17.269Z,10.70
2019-06-27T02:53:44.299Z,9.97
2019-06-27T02:56:11.247Z,9.57
2019-06-27T02:58:38.227Z,9.20
2019-06-27T03:01:05.248Z,9.87
2019-06-27T03:03:32.412Z,9.63
2019-06-27T03:05:59.440Z,9.30
2019-06-27T03:08:26.493Z,9.30
2019-06-27T03:10:53.909Z,9.33
2019-06-27T03:13:20.911Z,9.47
2019-06-27T03:15:48.111Z,9.50
2019-06-27T03:18:15.248Z,9.43
2019-06-27T03:20:42.381Z,9.90
2019-06-27T03:23:09.449Z,9.57
2019-06-27T03:25:36.468Z,9.00
2019-06-27T03:28:04.190Z,9.17
2019-06-27T03:30:31.239Z,9.33
2019-06-27T03:32:58.309Z,10.30
2019-06-27T03:35:26.651Z,9.33
2019-06-27T03:37:53.742Z,10.10
2019-06-27T03:40:20.657Z,10.77
2019-06-27T03:42:48.764Z,9.47
2019-06-27T03:45:16.465Z,9.63
2019-06-27T03:47:43.700Z,10.13
2019-06-27T03:50:10.715Z,10.33
2019-06-27T03:52:37.746Z,9.77
2019-06-27T03:55:06.229Z,9.30
2019-06-27T03:57:33.200Z,9.80
2019-06-27T04:00:00.287Z,9.90
2019-06-27T04:02:27.327Z,9.77
2019-06-27T04:04:54.458Z,9.20
2019-06-27T04:07:21.713Z,8.97
2019-06-27T04:09:48.791Z,9.30
2019-06-27T04:12:15.789Z,9.40
2019-06-27T04:14:42.698Z,8.43
2019-06-27T04:17:09.764Z,9.67
2019-06-27T04:19:36.829Z,9.33
2019-06-27T04:22:03.949Z,9.17
2019-06-27T04:24:30.987Z,8.50
2019-06-27T04:26:58.090Z,9.40
2019-06-27T04:29:33.357Z,8.33
2019-06-27T04:31:54.031Z,8.30
2019-06-27T04:34:21.141Z,8.70
2019-06-27T04:36:48.157Z,8.10
2019-06-27T04:39:15.111Z,8.07
2019-06-27T04:41:42.064Z,7.40
2019-06-27T04:44:09.084Z,8.10
2019-06-27T04:46:37.241Z,7.80
2019-06-27T04:49:04.242Z,7.70
2019-06-27T04:51:31.294Z,7.50
2019-06-27T04:53:58.281Z,6.97
2019-06-27T04:56:25.531Z,6.57
2019-06-27T04:58:52.651Z,7.20
2019-06-27T05:01:19.632Z,6.90
2019-06-27T05:03:46.833Z,7.43
2019-06-27T05:06:13.833Z,6.57
2019-06-27T05:08:40.912Z,7.40
2019-06-27T05:11:07.965Z,6.23
2019-06-27T05:13:35.029Z,7.00
2019-06-27T05:16:02.024Z,5.70
2019-06-27T05:18:31.175Z,6.67
2019-06-27T05:20:58.209Z,5.03
2019-06-27T05:23:25.213Z,5.90
2019-06-27T05:25:52.198Z,5.83
2019-06-27T05:28:19.208Z,5.33
2019-06-27T05:30:51.099Z,5.20
2019-06-27T05:33:16.140Z,5.17
2019-06-27T05:35:43.205Z,5.23
2019-06-27T05:38:11.477Z,5.10
2019-06-27T05:40:38.864Z,5.70
2019-06-27T05:43:06.268Z,5.40
2019-06-27T05:45:33.280Z,5.40
2019-06-27T05:48:00.337Z,5.30
2019-06-27T05:50:27.403Z,5.40
2019-06-27T05:52:55.728Z,5.30
2019-06-27T05:55:22.804Z,5.30
2019-06-27T05:57:53.710Z,5.13
2019-06-27T06:00:28.687Z,5.70
2019-06-27T06:02:51.499Z,6.60
2019-06-27T06:05:18.668Z,4.80
2019-06-27T06:07:46.814Z,5.20
2019-06-27T06:10:13.965Z,4.30
2019-06-27T06:12:40.971Z,5.03
2019-06-27T06:15:08.512Z,4.90
2019-06-27T06:17:35.462Z,4.87
2019-06-27T06:20:02.730Z,5.20
2019-06-27T06:22:29.731Z,4.63
2019-06-27T06:24:58.307Z,4.93
2019-06-27T06:27:26.005Z,4.70
2019-06-27T06:29:53.036Z,4.20
2019-06-27T06:32:20.220Z,4.63
2019-06-27T06:34:47.284Z,4.70
2019-06-27T06:37:14.514Z,4.30
2019-06-27T06:39:41.424Z,4.70
2019-06-27T06:42:08.538Z,4.40
2019-06-27T06:44:35.641Z,4.10
2019-06-27T06:47:02.794Z,3.90
2019-06-27T06:49:29.845Z,4.37
2019-06-27T06:51:56.885Z,4.70
2019-06-27T06:54:25.042Z,4.20
2019-06-27T06:56:52.129Z,4.40
2019-06-27T06:59:19.133Z,4.83
2019-06-27T07:01:46.224Z,4.90
2019-06-27T07:04:13.276Z,4.13
2019-06-27T07:06:40.263Z,4.10
2019-06-27T07:09:07.216Z,4.70
2019-06-27T07:11:34.212Z,4.10
2019-06-27T07:14:01.162Z,4.50
2019-06-27T07:16:28.249Z,3.70
2019-06-27T07:18:55.223Z,4.10
2019-06-27T07:21:22.435Z,4.27
2019-06-27T07:23:49.699Z,3.90
2019-06-27T07:26:16.880Z,3.97
2019-06-27T07:28:44.026Z,3.77
2019-06-27T07:31:17.705Z,3.93
2019-06-27T07:33:39.865Z,3.73
2019-06-27T07:36:07.016Z,3.63
2019-06-27T07:38:34.345Z,4.10
2019-06-27T07:41:01.760Z,3.60
2019-06-27T07:43:28.934Z,3.80
2019-06-27T07:45:55.944Z,3.30
2019-06-27T07:48:22.882Z,4.67
2019-06-27T07:50:49.901Z,3.20
2019-06-27T07:53:16.888Z,3.73
2019-06-27T07:55:43.945Z,3.53
2019-06-27T07:58:11.013Z,3.73
2019-06-27T08:00:38.128Z,3.13
2019-06-27T08:03:05.114Z,3.30
2019-06-27T08:05:32.321Z,3.43
2019-06-27T08:07:59.383Z,3.30
2019-06-27T08:10:26.292Z,3.20
2019-06-27T08:12:53.524Z,3.13
2019-06-27T08:15:21.987Z,3.53
2019-06-27T08:17:48.991Z,3.27
2019-06-27T08:20:15.907Z,3.43
2019-06-27T08:22:43.080Z,3.10
2019-06-27T08:25:11.364Z,2.87
2019-06-27T08:27:38.370Z,3.40
2019-06-27T08:30:08.210Z,2.90
2019-06-27T08:32:34.593Z,2.90
2019-06-27T08:35:01.519Z,2.80
2019-06-27T08:37:28.688Z,2.70
2019-06-27T08:39:55.889Z,2.93
2019-06-27T08:42:23.461Z,2.50
2019-06-27T08:44:52.666Z,3.50
2019-06-27T08:47:19.721Z,3.00
2019-06-27T08:49:46.754Z,3.50
2019-06-27T08:52:13.699Z,3.20
2019-06-27T08:54:40.853Z,2.83
2019-06-27T08:57:08.077Z,2.97
2019-06-27T08:59:35.154Z,2.90
2019-06-27T09:02:08.443Z,2.70
2019-06-27T09:04:31.277Z,2.77
2019-06-27T09:06:58.356Z,2.87
2019-06-27T09:09:25.495Z,2.63
2019-06-27T09:11:52.571Z,2.33
2019-06-27T09:14:20.350Z,2.23
2019-06-27T09:16:47.466Z,2.30
2019-06-27T09:19:14.608Z,1.90
2019-06-27T09:21:41.664Z,2.37
2019-06-27T09:24:08.660Z,2.50
2019-06-27T09:26:35.853Z,1.77
2019-06-27T09:29:03.123Z,2.80
2019-06-27T09:31:30.529Z,2.37
2019-06-27T09:33:57.710Z,2.27
2019-06-27T09:36:24.820Z,2.10
2019-06-27T09:38:51.734Z,2.50
2019-06-27T09:41:20.198Z,2.60
2019-06-27T09:43:48.031Z,2.63
2019-06-27T09:46:18.420Z,2.50
2019-06-27T09:48:45.496Z,2.63
2019-06-27T09:51:12.523Z,2.10
2019-06-27T09:53:39.588Z,2.10
2019-06-27T09:56:06.827Z,2.50
2019-06-27T09:58:33.957Z,3.00
2019-06-27T10:01:05.736Z,2.63
2019-06-27T10:03:31.089Z,2.77
2019-06-27T10:05:58.809Z,2.40
2019-06-27T10:08:27.891Z,2.60
2019-06-27T10:10:55.262Z,2.50
2019-06-27T10:13:22.580Z,1.93
2019-06-27T10:15:49.737Z,2.23
2019-06-27T10:18:16.826Z,1.87
2019-06-27T10:20:43.821Z,2.00
2019-06-27T10:23:10.955Z,2.20
2019-06-27T10:25:38.418Z,2.13
2019-06-27T10:28:05.460Z,2.67
2019-06-27T10:30:32.715Z,2.10
2019-06-27T10:33:00.502Z,1.90
2019-06-27T10:35:27.793Z,2.03
2019-06-27T10:37:54.780Z,2.00
2019-06-27T10:40:21.747Z,2.37
2019-06-27T10:42:48.784Z,2.40
2019-06-27T10:45:15.731Z,2.40
2019-06-27T10:47:43.612Z,2.20
2019-06-27T10:50:10.736Z,2.27
2019-06-27T10:52:38.914Z,1.90
2019-06-27T10:55:06.589Z,2.70
2019-06-27T10:57:33.695Z,2.30
2019-06-27T11:00:00.795Z,2.20
2019-06-27T11:02:27.828Z,2.57
2019-06-27T11:04:56.196Z,2.57
2019-06-27T11:07:23.235Z,3.07
2019-06-27T11:09:50.443Z,3.10
2019-06-27T11:12:17.576Z,3.00
2019-06-27T11:14:58.244Z,2.60
2019-06-27T11:17:13.522Z,2.73
2019-06-27T11:19:51.900Z,2.73
2019-06-27T11:22:09.409Z,2.33
2019-06-27T11:24:36.444Z,3.10
2019-06-27T11:27:03.466Z,3.00
2019-06-27T11:29:30.514Z,3.40
2019-06-27T11:31:59.566Z,2.70
2019-06-27T11:34:26.521Z,4.37
2019-06-27T11:36:53.552Z,3.47
2019-06-27T11:39:23.212Z,3.33
2019-06-27T11:41:49.660Z,2.70
2019-06-27T11:44:16.745Z,2.50
2019-06-27T11:46:43.858Z,3.10
2019-06-27T11:49:10.909Z,3.13
2019-06-27T11:51:37.805Z,2.57
2019-06-27T11:54:04.831Z,3.50
2019-06-27T11:56:31.959Z,2.87
2019-06-27T11:58:59.040Z,3.30
2019-06-27T12:01:26.121Z,3.17
2019-06-27T12:03:54.276Z,3.40
2019-06-27T12:06:21.234Z,2.83
2019-06-27T12:08:48.251Z,2.90
2019-06-27T12:11:15.218Z,2.83
2019-06-27T12:13:42.156Z,3.00
2019-06-27T12:16:09.193Z,3.17
2019-06-27T12:18:36.328Z,3.20
2019-06-27T12:21:05.885Z,3.07
2019-06-27T12:23:32.282Z,3.30
2019-06-27T12:25:59.486Z,3.50
2019-06-27T12:28:26.592Z,3.50
2019-06-27T12:30:53.673Z,5.20
2019-06-27T12:33:20.740Z,3.73
2019-06-27T12:35:47.840Z,3.20
2019-06-27T12:38:14.872Z,3.23
2019-06-27T12:40:41.768Z,3.27
2019-06-27T12:43:08.791Z,3.13
2019-06-27T12:45:35.862Z,4.00
2019-06-27T12:48:07.368Z,4.10
2019-06-27T12:50:31.741Z,3.30
2019-06-27T12:52:58.765Z,3.80
2019-06-27T12:55:25.838Z,3.37
2019-06-27T12:57:52.926Z,4.97
2019-06-27T13:00:21.055Z,3.60
2019-06-27T13:02:47.946Z,3.73
2019-06-27T13:05:15.025Z,3.80
2019-06-27T13:07:42.012Z,3.50
2019-06-27T13:10:09.660Z,3.53
2019-06-27T13:12:36.879Z,3.87
2019-06-27T13:15:04.313Z,3.33
2019-06-27T13:17:31.256Z,3.60
2019-06-27T13:19:58.229Z,3.73
2019-06-27T13:22:25.216Z,3.00
2019-06-27T13:24:52.158Z,3.03
2019-06-27T13:27:19.170Z,2.90
2019-06-27T13:29:46.334Z,3.30
2019-06-27T13:32:13.643Z,3.50
2019-06-27T13:34:41.267Z,3.20
2019-06-27T13:37:08.502Z,3.43
2019-06-27T13:39:35.505Z,3.00
2019-06-27T13:42:02.525Z,3.97
2019-06-27T13:44:29.537Z,3.23
2019-06-27T13:46:56.618Z,3.30
2019-06-27T13:49:23.495Z,3.70
2019-06-27T13:51:50.578Z,3.30
2019-06-27T13:54:17.656Z,2.90
2019-06-27T13:56:44.885Z,3.10
2019-06-27T13:59:12.000Z,3.40
2019-06-27T14:01:40.898Z,3.40
2019-06-27T14:04:07.990Z,3.20
2019-06-27T14:06:35.106Z,3.53
2019-06-27T14:09:02.424Z,2.90
2019-06-27T14:11:29.468Z,2.60
2019-06-27T14:13:56.529Z,3.23
2019-06-27T14:16:23.653Z,2.70
2019-06-27T14:18:50.709Z,2.50
2019-06-27T14:21:17.940Z,2.50
2019-06-27T14:23:44.998Z,2.70
2019-06-27T14:26:12.055Z,2.27
2019-06-27T14:28:39.108Z,2.73
2019-06-27T14:31:06.406Z,2.60
2019-06-27T14:33:33.624Z,2.30
2019-06-27T14:36:02.746Z,2.50
2019-06-27T14:38:29.938Z,2.10
2019-06-27T14:40:56.964Z,2.10
2019-06-27T14:43:24.015Z,2.00
2019-06-27T14:45:51.633Z,2.40
2019-06-27T14:48:19.725Z,2.00
2019-06-27T14:50:46.652Z,1.97
2019-06-27T14:53:13.666Z,2.13
2019-06-27T14:55:40.685Z,1.87
2019-06-27T14:58:07.989Z,1.70
2019-06-27T15:00:35.075Z,1.70
2019-06-27T15:03:02.135Z,1.90
2019-06-27T15:05:33.038Z,1.90
2019-06-27T15:07:58.130Z,1.70
2019-06-27T15:10:25.248Z,1.67
2019-06-27T15:12:57.001Z,1.90
2019-06-27T15:15:21.107Z,1.73
2019-06-27T15:17:48.132Z,1.40
2019-06-27T15:20:15.293Z,1.97
2019-06-27T15:22:42.353Z,1.83
2019-06-27T15:25:09.807Z,2.23
2019-06-27T15:27:37.121Z,1.97
2019-06-27T15:30:06.959Z,2.10
2019-06-27T15:32:34.050Z,1.93
2019-06-27T15:35:01.387Z,3.00
2019-06-27T15:37:28.837Z,1.80
2019-06-27T15:39:56.075Z,2.20
2019-06-27T15:42:23.892Z,2.00
2019-06-27T15:44:51.454Z,1.93
2019-06-27T15:47:18.707Z,2.63
2019-06-27T15:49:46.044Z,2.17
2019-06-27T15:52:13.102Z,1.60
2019-06-27T15:54:40.250Z,1.77
2019-06-27T15:57:07.589Z,1.90
2019-06-27T15:59:34.862Z,2.83
2019-06-27T16:02:05.889Z,2.37
2019-06-27T16:04:35.322Z,1.83
2019-06-27T16:07:02.450Z,2.23
2019-06-27T16:09:29.895Z,1.73
2019-06-27T16:11:57.189Z,1.57
2019-06-27T16:14:24.350Z,1.90
2019-06-27T16:16:51.463Z,1.87
2019-06-27T16:19:18.465Z,2.60
2019-06-27T16:21:52.851Z,2.40
2019-06-27T16:24:20.209Z,2.30
2019-06-27T16:26:49.178Z,2.57
2019-06-27T16:29:16.440Z,1.97
2019-06-27T16:31:43.560Z,2.43
2019-06-27T16:34:10.607Z,1.70
2019-06-27T16:36:38.281Z,1.80
2019-06-27T16:39:05.527Z,1.80
2019-06-27T16:41:32.627Z,1.90
2019-06-27T16:43:59.945Z,2.40
2019-06-27T16:46:27.015Z,2.20
2019-06-27T16:48:54.246Z,3.20
2019-06-27T16:51:21.395Z,1.97
2019-06-27T16:53:48.494Z,2.40
2019-06-27T16:56:15.624Z,2.47
2019-06-27T16:58:42.569Z,1.80
2019-06-27T17:01:13.106Z,2.00
2019-06-27T17:03:40.182Z,2.33
2019-06-27T17:06:07.296Z,2.00
2019-06-27T17:08:34.448Z,2.40
2019-06-27T17:11:01.581Z,1.67
2019-06-27T17:13:28.747Z,1.60
2019-06-27T17:15:55.869Z,2.10
2019-06-27T17:18:23.015Z,2.30
2019-06-27T17:20:50.188Z,2.00
2019-06-27T17:23:17.270Z,1.90
2019-06-27T17:25:44.301Z,2.30
2019-06-27T17:28:11.778Z,2.07
2019-06-27T17:30:38.996Z,2.43
2019-06-27T17:33:06.152Z,2.30
2019-06-27T17:35:33.199Z,2.83
2019-06-27T17:38:00.250Z,2.87
2019-06-27T17:40:27.476Z,2.70
2019-06-27T17:42:54.546Z,2.63
2019-06-27T17:45:21.710Z,2.30
2019-06-27T17:47:49.517Z,2.10
2019-06-27T17:50:16.841Z,2.10
2019-06-27T17:52:43.918Z,2.20
2019-06-27T17:55:11.891Z,2.83
2019-06-27T17:57:38.944Z,2.30
2019-06-27T18:00:06.289Z,2.20
2019-06-27T18:02:33.279Z,2.30
2019-06-27T18:05:00.226Z,2.10
2019-06-27T18:07:27.202Z,4.13
2019-06-27T18:09:57.597Z,2.80
2019-06-27T18:12:25.189Z,2.70
2019-06-27T18:14:52.179Z,2.60
2019-06-27T18:17:32.600Z,3.20
2019-06-27T18:19:48.298Z,2.60
2019-06-27T18:22:15.357Z,9.70
2019-06-27T18:24:42.475Z,3.30
2019-06-27T18:27:09.480Z,3.07
2019-06-27T18:29:36.438Z,3.30
2019-06-27T18:32:03.532Z,2.97
2019-06-27T18:34:30.739Z,3.13
2019-06-27T18:36:57.828Z,3.30
2019-06-27T18:39:25.314Z,3.23
2019-06-27T18:41:54.126Z,3.27
2019-06-27T18:44:21.636Z,3.20
2019-06-27T18:46:48.757Z,2.67
2019-06-27T18:49:15.883Z,2.57
2019-06-27T18:51:42.837Z,2.70
2019-06-27T18:54:10.131Z,2.53
2019-06-27T18:56:37.127Z,2.33
2019-06-27T18:59:04.312Z,3.03
2019-06-27T19:01:31.397Z,2.53
2019-06-27T19:03:58.578Z,2.87
2019-06-27T19:06:25.868Z,2.73
2019-06-27T19:08:53.436Z,2.60
2019-06-27T19:11:21.499Z,2.90
2019-06-27T19:13:48.593Z,2.60
2019-06-27T19:16:15.620Z,2.37
2019-06-27T19:18:42.633Z,3.00
2019-06-27T19:21:11.624Z,2.80
2019-06-27T19:23:52.664Z,2.63
2019-06-27T19:26:19.975Z,2.43
2019-06-27T19:28:47.029Z,2.53
2019-06-27T19:31:14.102Z,2.70
2019-06-27T19:33:41.159Z,2.10
2019-06-27T19:36:08.707Z,2.53
2019-06-27T19:38:35.784Z,2.60
2019-06-27T19:41:03.701Z,3.33
2019-06-27T19:43:30.648Z,2.50
2019-06-27T19:45:57.609Z,2.57
2019-06-27T19:48:24.620Z,2.80
2019-06-27T19:50:51.652Z,2.20
2019-06-27T19:53:18.795Z,2.70
2019-06-27T19:55:45.877Z,2.83
2019-06-27T19:58:12.904Z,2.53
2019-06-27T20:00:40.491Z,2.77
2019-06-27T20:03:07.676Z,2.50
2019-06-27T20:05:35.109Z,3.77
2019-06-27T20:08:17.762Z,3.30
2019-06-27T20:10:31.283Z,3.10
2019-06-27T20:12:58.301Z,2.53
2019-06-27T20:15:25.278Z,2.77
2019-06-27T20:17:53.481Z,3.17
2019-06-27T20:20:20.461Z,3.30
2019-06-27T20:22:47.465Z,3.00
2019-06-27T20:25:14.645Z,3.20
2019-06-27T20:27:41.745Z,2.57
2019-06-27T20:30:09.193Z,3.23
2019-06-27T20:32:36.249Z,3.00
2019-06-27T20:35:03.704Z,2.83
2019-06-27T20:37:30.723Z,2.77
2019-06-27T20:39:57.705Z,3.43
2019-06-27T20:42:24.719Z,3.43
2019-06-27T20:44:52.930Z,2.83
2019-06-27T20:47:20.075Z,3.10
2019-06-27T20:49:47.112Z,2.87
2019-06-27T20:52:14.226Z,2.60
2019-06-27T20:54:41.314Z,3.00
2019-06-27T20:57:08.431Z,2.73
2019-06-27T20:59:35.484Z,3.20
2019-06-27T21:02:02.637Z,3.13
2019-06-27T21:04:29.699Z,3.50
2019-06-27T21:06:56.950Z,2.70
2019-06-27T21:09:25.011Z,3.10
2019-06-27T21:11:52.129Z,2.43
2019-06-27T21:14:19.309Z,3.40
2019-06-27T21:16:46.507Z,3.10
2019-06-27T21:19:13.445Z,2.63
2019-06-27T21:21:41.473Z,2.90
2019-06-27T21:24:08.664Z,2.70
2019-06-27T21:26:35.850Z,2.77
2019-06-27T21:29:02.951Z,3.23
2019-06-27T21:31:30.116Z,3.00
2019-06-27T21:33:57.087Z,2.80
2019-06-27T21:36:24.385Z,2.70
2019-06-27T21:39:06.701Z,2.90
2019-06-27T21:41:20.333Z,2.90
2019-06-27T21:43:47.319Z,2.50
2019-06-27T21:46:14.615Z,2.90
2019-06-27T21:48:41.705Z,3.40
2019-06-27T21:51:08.891Z,2.73
2019-06-27T21:53:36.041Z,2.50
2019-06-27T21:56:03.261Z,2.83
2019-06-27T21:58:31.324Z,2.40
2019-06-27T22:01:00.871Z,2.70
2019-06-27T22:03:27.943Z,2.67
2019-06-27T22:05:55.030Z,2.80
2019-06-27T22:08:22.046Z,2.70
2019-06-27T22:10:49.158Z,2.70
2019-06-27T22:13:16.318Z,3.00
2019-06-27T22:15:44.812Z,2.57
2019-06-27T22:18:12.202Z,2.50
2019-06-27T22:20:40.277Z,2.50
2019-06-27T22:23:07.322Z,2.37
2019-06-27T22:25:40.545Z,2.33
2019-06-27T22:28:03.540Z,2.00
2019-06-27T22:30:30.565Z,2.47
2019-06-27T22:32:59.073Z,2.20
2019-06-27T22:35:26.008Z,2.33
2019-06-27T22:38:12.217Z,2.50
2019-06-27T22:40:58.178Z,2.30
2019-06-27T22:43:43.398Z,2.20
2019-06-27T22:46:29.276Z,2.60
2019-06-27T22:48:58.754Z,2.23
2019-06-27T22:51:46.561Z,2.13
2019-06-27T22:54:15.590Z,2.33
2019-06-27T22:56:42.677Z,3.43
2019-06-27T22:59:09.817Z,3.00
2019-06-27T23:01:36.794Z,2.73
2019-06-27T23:04:03.882Z,2.90
2019-06-27T23:06:30.823Z,2.40
2019-06-27T23:08:58.013Z,2.63
2019-06-27T23:11:25.072Z,2.10
2019-06-27T23:13:52.317Z,2.20
2019-06-27T23:16:19.222Z,2.33
2019-06-27T23:18:46.154Z,2.20
2019-06-27T23:21:13.119Z,2.10
2019-06-27T23:23:40.214Z,2.10
2019-06-27T23:26:07.276Z,2.50
2019-06-27T23:28:35.445Z,2.50
2019-06-27T23:31:02.338Z,2.40
2019-06-27T23:33:30.510Z,2.23
2019-06-27T23:35:58.581Z,2.23
2019-06-27T23:38:25.549Z,2.10
2019-06-27T23:40:52.545Z,2.20
2019-06-27T23:43:19.564Z,2.17
2019-06-27T23:45:46.558Z,2.37
2019-06-27T23:48:13.608Z,1.77
2019-06-27T23:50:40.543Z,1.80
2019-06-27T23:53:07.504Z,2.23
2019-06-27T23:55:34.506Z,2.60
2019-06-27T23:58:01.505Z,2.10
